Time;durP1;ratioP1;P1;durP2;ratioP2;P2;SDS_P1;SDS_P2;PMS_P1;PMS_P2;Temp;Humidity;BMP_temperature;BMP_pressure;BME280_temperature;BME280_humidity;BME280_pressure;Samples;Min_cycle;Max_cycle;Signal;HPM_P1;HPM_P2
2021/03/09 00:00:06;;;;;;;60.03;25.90;;;;;;;;;;5053523;28;20021;-80
2021/03/09 00:02:31;;;;;;;57.80;25.87;;;;;;;;;;5054941;28;20013;-79
2021/03/09 00:04:56;;;;;;;59.77;25.70;;;;;;;;;;5054574;28;20013;-80
2021/03/09 00:07:21;;;;;;;59.73;25.17;;;;;;;;;;5053654;28;20009;-79
2021/03/09 00:09:46;;;;;;;59.20;26.00;;;;;;;;;;5054680;28;20028;-79
2021/03/09 00:12:11;;;;;;;63.53;26.27;;;;;;;;;;5053077;28;20036;-79
2021/03/09 00:14:37;;;;;;;60.27;25.53;;;;;;;;;;5054934;28;20017;-79
2021/03/09 00:17:02;;;;;;;60.23;26.50;;;;;;;;;;5054298;28;20025;-80
2021/03/09 00:19:27;;;;;;;65.87;28.67;;;;;;;;;;5053383;28;20017;-79
2021/03/09 00:21:52;;;;;;;60.60;25.90;;;;;;;;;;5053134;28;20453;-79
2021/03/09 00:24:18;;;;;;;58.90;26.43;;;;;;;;;;5053284;28;20075;-79
2021/03/09 00:26:43;;;;;;;67.83;27.00;;;;;;;;;;5054511;28;20048;-80
2021/03/09 00:29:08;;;;;;;63.67;27.37;;;;;;;;;;5048310;28;20035;-80
2021/03/09 00:31:33;;;;;;;63.03;26.83;;;;;;;;;;5054466;28;20017;-79
2021/03/09 00:33:58;;;;;;;59.80;27.60;;;;;;;;;;5052816;28;20434;-79
2021/03/09 00:36:23;;;;;;;68.87;28.93;;;;;;;;;;5054433;28;20066;-79
2021/03/09 00:38:49;;;;;;;64.67;28.07;;;;;;;;;;5054654;28;20040;-79
2021/03/09 00:41:14;;;;;;;70.37;29.33;;;;;;;;;;5052845;28;20186;-80
2021/03/09 00:43:39;;;;;;;66.23;28.97;;;;;;;;;;5052646;28;20023;-80
2021/03/09 00:46:04;;;;;;;62.90;26.63;;;;;;;;;;5052822;28;20384;-80
2021/03/09 00:48:36;;;;;;;66.83;27.80;;;;;;;;;;5052846;28;20016;-79
2021/03/09 00:51:02;;;;;;;67.88;28.02;;;;;;;;;;5053469;28;20543;-79
2021/03/09 00:53:27;;;;;;;65.50;28.47;;;;;;;;;;5052725;28;20018;-80
2021/03/09 00:55:52;;;;;;;72.23;28.93;;;;;;;;;;5052815;28;20013;-79
2021/03/09 00:58:17;;;;;;;71.23;29.07;;;;;;;;;;5052263;28;20079;-79
2021/03/09 01:00:42;;;;;;;70.60;27.93;;;;;;;;;;5052749;28;20025;-79
2021/03/09 01:03:07;;;;;;;68.33;30.07;;;;;;;;;;5050936;28;20032;-79
2021/03/09 01:05:33;;;;;;;71.70;31.43;;;;;;;;;;5054278;28;20063;-79
2021/03/09 01:07:58;;;;;;;64.37;30.30;;;;;;;;;;5052328;28;20105;-79
2021/03/09 01:10:23;;;;;;;67.53;29.77;;;;;;;;;;5052316;28;20036;-80
2021/03/09 01:12:48;;;;;;;71.23;29.63;;;;;;;;;;5053701;28;20029;-79
2021/03/09 01:15:14;;;;;;;65.43;30.53;;;;;;;;;;5053179;28;20027;-79
2021/03/09 01:17:39;;;;;;;70.27;29.67;;;;;;;;;;5052213;28;20384;-79
2021/03/09 01:20:05;;;;;;;66.00;28.13;;;;;;;;;;5052057;28;20031;-79
2021/03/09 01:22:31;;;;;;;68.90;29.77;;;;;;;;;;5051994;28;20029;-79
2021/03/09 01:24:56;;;;;;;67.93;31.90;;;;;;;;;;5053267;28;20059;-79
2021/03/09 01:27:21;;;;;;;63.27;28.07;;;;;;;;;;5052087;28;20028;-79
2021/03/09 01:29:46;;;;;;;72.93;29.30;;;;;;;;;;5052051;28;20021;-79
2021/03/09 01:32:11;;;;;;;66.83;31.13;;;;;;;;;;5053228;28;20057;-79
2021/03/09 01:34:37;;;;;;;63.10;28.53;;;;;;;;;;5052125;28;20082;-79
2021/03/09 01:37:02;;;;;;;67.90;30.10;;;;;;;;;;5051940;28;20107;-79
2021/03/09 01:39:27;;;;;;;64.20;29.00;;;;;;;;;;5051764;28;20090;-80
2021/03/09 01:41:52;;;;;;;68.80;28.83;;;;;;;;;;5051645;28;20021;-79
2021/03/09 01:44:18;;;;;;;68.30;30.83;;;;;;;;;;5053031;28;20075;-79
2021/03/09 01:46:45;;;;;;;62.07;28.33;;;;;;;;;;5050535;28;20189;-79
2021/03/09 01:49:11;;;;;;;60.57;28.00;;;;;;;;;;5052339;28;20023;-80
2021/03/09 01:51:37;;;;;;;63.00;30.03;;;;;;;;;;5052527;28;20017;-80
2021/03/09 01:54:02;;;;;;;63.00;29.83;;;;;;;;;;5051792;28;20020;-79
2021/03/09 01:56:28;;;;;;;65.37;30.30;;;;;;;;;;5052426;28;20052;-79
2021/03/09 01:58:53;;;;;;;65.37;28.37;;;;;;;;;;5051254;28;20016;-79
2021/03/09 02:01:18;;;;;;;68.67;28.67;;;;;;;;;;5054551;28;20426;-79
2021/03/09 02:03:44;;;;;;;66.63;29.50;;;;;;;;;;5051246;28;20526;-79
2021/03/09 02:06:13;;;;;;;63.00;27.90;;;;;;;;;;5059232;28;20115;-79
2021/03/09 02:08:38;;;;;;;62.33;27.07;;;;;;;;;;5052607;28;20029;-79
2021/03/09 02:11:08;;;;;;;63.97;29.23;;;;;;;;;;5052253;28;20547;-79
2021/03/09 02:14:06;;;;;;;62.17;28.17;;;;;;;;;;5053669;28;20481;-79
2021/03/09 02:16:34;;;;;;;66.83;27.23;;;;;;;;;;5038155;28;20063;-79
2021/03/09 02:19:09;;;;;;;57.07;27.00;;;;;;;;;;5051206;28;20024;-79
2021/03/09 02:21:43;;;;;;;58.17;24.23;;;;;;;;;;5052091;28;20021;-79
2021/03/09 02:24:17;;;;;;;58.40;25.70;;;;;;;;;;5052031;28;20116;-80
2021/03/09 02:27:05;;;;;;;60.63;26.17;;;;;;;;;;5052213;28;20021;-79
2021/03/09 02:29:40;;;;;;;61.80;27.37;;;;;;;;;;5052128;28;20055;-79
2021/03/09 02:32:07;;;;;;;58.10;27.17;;;;;;;;;;5051992;28;20455;-79
2021/03/09 02:34:35;;;;;;;58.10;28.33;;;;;;;;;;5052023;28;20013;-79
2021/03/09 02:37:02;;;;;;;61.73;25.10;;;;;;;;;;5052171;28;20079;-79
2021/03/09 02:39:28;;;;;;;59.83;28.10;;;;;;;;;;5050677;28;20024;-79
2021/03/09 02:41:56;;;;;;;63.53;27.70;;;;;;;;;;5051884;28;20024;-79
2021/03/09 02:44:23;;;;;;;60.47;27.23;;;;;;;;;;5050876;28;20017;-80
2021/03/09 02:46:48;;;;;;;54.17;24.73;;;;;;;;;;5050525;28;20032;-79
2021/03/09 02:49:14;;;;;;;59.97;27.03;;;;;;;;;;5050598;28;20020;-79
2021/03/09 02:51:41;;;;;;;56.13;24.73;;;;;;;;;;5050317;28;20036;-80
2021/03/09 02:54:07;;;;;;;53.03;23.83;;;;;;;;;;5051989;28;20021;-79
2021/03/09 02:56:33;;;;;;;57.33;24.93;;;;;;;;;;5050543;28;20039;-79
2021/03/09 02:58:59;;;;;;;62.67;25.43;;;;;;;;;;5049965;28;20020;-79
2021/03/09 03:01:25;;;;;;;61.00;24.83;;;;;;;;;;5050795;28;20027;-79
2021/03/09 03:03:52;;;;;;;58.17;25.07;;;;;;;;;;5050034;28;20025;-79
2021/03/09 03:06:18;;;;;;;52.60;23.87;;;;;;;;;;5051881;28;20032;-79
2021/03/09 03:08:44;;;;;;;60.43;27.00;;;;;;;;;;5050262;28;20108;-79
2021/03/09 03:11:10;;;;;;;63.93;26.33;;;;;;;;;;5050493;28;20021;-79
2021/03/09 03:13:36;;;;;;;62.33;26.60;;;;;;;;;;5050193;28;20570;-79
2021/03/09 03:16:02;;;;;;;62.67;27.50;;;;;;;;;;5053543;28;20112;-80
2021/03/09 03:18:29;;;;;;;61.97;27.57;;;;;;;;;;5050409;28;20111;-79
2021/03/09 03:20:55;;;;;;;66.57;29.13;;;;;;;;;;5051763;28;20415;-79
2021/03/09 03:23:21;;;;;;;61.17;28.57;;;;;;;;;;5051746;28;20025;-79
2021/03/09 03:25:49;;;;;;;60.73;26.93;;;;;;;;;;5050772;28;20029;-79
2021/03/09 03:28:14;;;;;;;67.17;34.10;;;;;;;;;;5055694;28;20021;-79
2021/03/09 03:30:39;;;;;;;63.97;26.53;;;;;;;;;;5053854;28;20082;-80
2021/03/09 03:33:05;;;;;;;63.00;29.50;;;;;;;;;;5058004;28;20400;-79
2021/03/09 03:35:30;;;;;;;63.50;27.17;;;;;;;;;;5055516;28;20091;-79
2021/03/09 03:37:55;;;;;;;64.90;28.70;;;;;;;;;;5055100;28;20013;-79
2021/03/09 03:40:22;;;;;;;65.43;28.83;;;;;;;;;;5054217;28;20013;-80
2021/03/09 03:42:47;;;;;;;67.07;30.90;;;;;;;;;;5053936;28;20474;-80
2021/03/09 03:45:13;;;;;;;74.33;30.27;;;;;;;;;;5054163;28;20017;-80
2021/03/09 03:47:39;;;;;;;66.33;30.37;;;;;;;;;;5053553;28;20026;-80
2021/03/09 03:50:05;;;;;;;61.00;28.07;;;;;;;;;;5053743;28;20033;-80
2021/03/09 03:52:49;;;;;;;59.87;28.00;;;;;;;;;;5053721;28;20070;-80
2021/03/09 03:55:27;;;;;;;60.60;27.63;;;;;;;;;;5053194;28;20851;-80
2021/03/09 03:57:54;;;;;;;58.47;26.07;;;;;;;;;;5053707;28;20017;-79
2021/03/09 04:00:20;;;;;;;62.13;27.57;;;;;;;;;;5084198;28;20040;-80
2021/03/09 04:02:47;;;;;;;64.73;28.20;;;;;;;;;;5054787;28;20016;-80
2021/03/09 04:05:13;;;;;;;58.70;26.60;;;;;;;;;;5053408;28;20028;-80
2021/03/09 04:07:39;;;;;;;62.10;28.97;;;;;;;;;;5054624;28;20017;-79
2021/03/09 04:10:04;;;;;;;64.70;30.03;;;;;;;;;;5052927;28;20028;-80
2021/03/09 04:12:30;;;;;;;62.13;28.30;;;;;;;;;;5054317;28;20020;-80
2021/03/09 04:14:58;;;;;;;66.03;30.10;;;;;;;;;;5054827;28;20139;-80
2021/03/09 04:17:24;;;;;;;63.93;29.93;;;;;;;;;;5051003;28;20027;-80
2021/03/09 04:19:50;;;;;;;68.17;28.70;;;;;;;;;;5060506;28;20112;-80
2021/03/09 04:22:16;;;;;;;59.57;28.27;;;;;;;;;;5054329;28;20087;-80
2021/03/09 04:24:42;;;;;;;62.27;29.73;;;;;;;;;;5053591;28;20028;-80
2021/03/09 04:27:08;;;;;;;62.43;29.70;;;;;;;;;;5053066;28;20024;-80
2021/03/09 04:29:33;;;;;;;64.83;27.27;;;;;;;;;;5053208;28;20457;-80
2021/03/09 04:31:58;;;;;;;60.00;27.57;;;;;;;;;;5053250;28;20029;-80
2021/03/09 04:34:24;;;;;;;60.13;28.80;;;;;;;;;;5052955;28;20029;-80
2021/03/09 04:36:50;;;;;;;56.93;25.80;;;;;;;;;;5052945;28;20061;-80
2021/03/09 04:39:15;;;;;;;65.73;26.07;;;;;;;;;;5052896;28;20111;-80
2021/03/09 04:41:41;;;;;;;62.57;28.90;;;;;;;;;;5054257;28;20448;-80
2021/03/09 04:44:06;;;;;;;64.93;29.00;;;;;;;;;;5052980;28;20494;-80
2021/03/09 04:46:31;;;;;;;66.70;27.30;;;;;;;;;;5052700;28;20042;-80
2021/03/09 04:48:57;;;;;;;60.20;28.73;;;;;;;;;;5053062;28;20162;-80
2021/03/09 04:51:22;;;;;;;61.33;28.03;;;;;;;;;;5053811;28;20028;-80
2021/03/09 04:53:48;;;;;;;62.90;31.30;;;;;;;;;;5052549;28;20021;-80
2021/03/09 04:56:13;;;;;;;63.30;27.50;;;;;;;;;;5052216;28;20021;-80
2021/03/09 04:58:39;;;;;;;60.83;26.23;;;;;;;;;;5052457;28;20009;-80
2021/03/09 05:01:04;;;;;;;63.10;27.57;;;;;;;;;;5053937;28;20039;-79
2021/03/09 05:03:33;;;;;;;58.70;27.77;;;;;;;;;;5052056;28;20040;-80
2021/03/09 05:05:58;;;;;;;62.27;26.33;;;;;;;;;;5058061;28;20029;-80
2021/03/09 05:08:23;;;;;;;55.17;26.27;;;;;;;;;;5052400;28;20035;-80
2021/03/09 05:10:49;;;;;;;60.10;27.27;;;;;;;;;;5053314;28;20039;-80
2021/03/09 05:13:15;;;;;;;58.53;27.17;;;;;;;;;;5053449;28;20104;-80
2021/03/09 05:15:40;;;;;;;60.10;25.60;;;;;;;;;;5053455;28;20017;-80
2021/03/09 05:18:05;;;;;;;57.57;25.83;;;;;;;;;;5058789;28;20074;-80
2021/03/09 05:20:30;;;;;;;63.50;29.37;;;;;;;;;;5051887;28;20479;-80
2021/03/09 05:22:56;;;;;;;63.87;26.77;;;;;;;;;;5059575;28;20021;-80
2021/03/09 05:25:21;;;;;;;60.47;25.80;;;;;;;;;;5052200;28;20024;-79
2021/03/09 05:27:47;;;;;;;63.60;28.30;;;;;;;;;;5051941;28;20024;-80
2021/03/09 05:30:13;;;;;;;60.50;25.20;;;;;;;;;;5052172;28;20124;-80
2021/03/09 05:32:38;;;;;;;61.90;26.67;;;;;;;;;;5051776;28;20154;-80
2021/03/09 05:35:05;;;;;;;65.23;27.27;;;;;;;;;;5053460;28;20076;-80
2021/03/09 05:37:30;;;;;;;56.27;25.40;;;;;;;;;;5052852;28;20435;-80
2021/03/09 05:39:55;;;;;;;64.07;25.30;;;;;;;;;;5053365;28;20017;-80
2021/03/09 05:42:20;;;;;;;64.67;25.90;;;;;;;;;;5053331;28;20024;-80
2021/03/09 05:44:46;;;;;;;63.30;28.33;;;;;;;;;;5081086;28;20079;-80
2021/03/09 05:47:11;;;;;;;65.70;27.70;;;;;;;;;;5051844;28;20025;-80
2021/03/09 05:49:36;;;;;;;58.90;25.53;;;;;;;;;;5052346;28;20112;-80
2021/03/09 05:52:02;;;;;;;61.87;29.37;;;;;;;;;;5052972;28;20027;-79
2021/03/09 05:54:27;;;;;;;57.47;25.97;;;;;;;;;;5051100;28;20052;-80
2021/03/09 05:56:52;;;;;;;58.40;26.20;;;;;;;;;;5051487;28;20032;-80
2021/03/09 05:59:17;;;;;;;57.97;25.97;;;;;;;;;;5057045;28;20452;-79
2021/03/09 06:01:43;;;;;;;63.07;26.93;;;;;;;;;;5052381;28;20434;-80
2021/03/09 06:04:08;;;;;;;62.90;25.83;;;;;;;;;;5057959;28;20050;-80
2021/03/09 06:06:34;;;;;;;59.53;25.80;;;;;;;;;;5052603;28;20108;-80
2021/03/09 06:08:59;;;;;;;59.77;26.30;;;;;;;;;;5051117;28;20025;-79
2021/03/09 06:11:25;;;;;;;62.87;26.73;;;;;;;;;;5052079;28;20049;-80
2021/03/09 06:13:50;;;;;;;55.97;25.03;;;;;;;;;;5050253;28;20056;-80
2021/03/09 06:16:15;;;;;;;63.90;25.70;;;;;;;;;;5057551;28;20025;-80
2021/03/09 06:18:56;;;;;;;61.13;25.97;;;;;;;;;;5051514;28;20021;-80
2021/03/09 06:21:22;;;;;;;61.70;27.40;;;;;;;;;;5045721;28;20045;-79
2021/03/09 06:23:47;;;;;;;62.30;25.77;;;;;;;;;;5051365;28;20024;-79
2021/03/09 06:26:32;;;;;;;65.73;28.43;;;;;;;;;;5056646;28;20032;-80
2021/03/09 06:29:07;;;;;;;66.53;27.47;;;;;;;;;;5049960;28;20494;-80
2021/03/09 06:31:33;;;;;;;63.53;27.40;;;;;;;;;;5050264;28;20507;-80
2021/03/09 06:34:18;;;;;;;66.67;29.17;;;;;;;;;;5052342;28;20041;-79
2021/03/09 06:36:59;;;;;;;62.63;26.70;;;;;;;;;;5048891;28;20028;-80
2021/03/09 06:39:25;;;;;;;64.03;27.43;;;;;;;;;;5050006;28;20021;-80
2021/03/09 06:41:50;;;;;;;62.73;27.10;;;;;;;;;;5051358;28;20033;-80
2021/03/09 06:44:22;;;;;;;59.70;27.73;;;;;;;;;;5050015;28;20068;-80
2021/03/09 06:46:47;;;;;;;;;;;;;;;;;;5055031;28;20025;-79
2021/03/09 06:49:13;;;;;;;59.80;25.55;;;;;;;;;;5049174;28;20295;-79
2021/03/09 06:51:38;;;;;;;59.13;25.93;;;;;;;;;;5049280;28;20480;-79
2021/03/09 06:54:04;;;;;;;62.50;26.60;;;;;;;;;;5050206;28;20028;-79
2021/03/09 06:56:29;;;;;;;60.70;28.20;;;;;;;;;;5049171;28;20032;-79
2021/03/09 06:58:54;;;;;;;58.37;26.47;;;;;;;;;;5049401;28;20048;-79
2021/03/09 07:01:20;;;;;;;60.57;26.33;;;;;;;;;;5048053;28;20427;-80
2021/03/09 07:03:45;;;;;;;63.57;27.07;;;;;;;;;;5049388;28;20510;-79
2021/03/09 07:06:10;;;;;;;63.07;26.43;;;;;;;;;;5049631;28;20025;-80
2021/03/09 07:08:35;;;;;;;69.90;28.67;;;;;;;;;;5048571;28;20111;-79
2021/03/09 07:13:21;;;;;;;65.70;29.97;;;;;;;;;;5088813;27;20350;-79
2021/03/09 07:15:47;;;;;;;70.17;29.03;;;;;;;;;;5088552;28;20755;-79
2021/03/09 07:18:12;;;;;;;78.03;32.27;;;;;;;;;;5086301;28;20048;-79
2021/03/09 07:20:37;;;;;;;68.77;27.93;;;;;;;;;;5087980;28;20552;-79
2021/03/09 07:23:03;;;;;;;62.90;27.40;;;;;;;;;;5087538;28;20024;-79
2021/03/09 07:25:29;;;;;;;67.63;27.47;;;;;;;;;;5088080;28;20017;-79
2021/03/09 07:28:04;;;;;;;69.53;28.53;;;;;;;;;;5084940;28;20403;-79
2021/03/09 07:30:30;;;;;;;65.07;28.60;;;;;;;;;;5089085;28;20046;-79
2021/03/09 07:32:57;;;;;;;66.67;27.63;;;;;;;;;;5087360;28;20024;-79
2021/03/09 07:35:23;;;;;;;67.17;28.10;;;;;;;;;;5087822;28;20023;-78
2021/03/09 07:37:49;;;;;;;65.50;29.20;;;;;;;;;;5089087;28;20100;-79
2021/03/09 07:40:18;;;;;;;63.73;31.23;;;;;;;;;;5088726;28;20495;-79
2021/03/09 07:42:44;;;;;;;65.13;28.00;;;;;;;;;;5089369;28;20055;-79
2021/03/09 07:45:16;;;;;;;61.57;27.47;;;;;;;;;;5088447;28;20120;-79
2021/03/09 07:47:42;;;;;;;;;;;;;;;;;;5087961;28;20544;-79
2021/03/09 07:50:07;;;;;;;65.95;27.15;;;;;;;;;;5088688;28;20555;-79
2021/03/09 07:52:32;;;;;;;72.43;30.30;;;;;;;;;;5087291;28;20031;-79
2021/03/09 07:55:03;;;;;;;68.57;32.30;;;;;;;;;;5088390;28;20016;-79
2021/03/09 07:57:37;;;;;;;63.53;27.83;;;;;;;;;;5086469;28;20029;-79
2021/03/09 08:00:06;;;;;;;70.17;36.43;;;;;;;;;;5087085;28;20032;-79
2021/03/09 08:02:37;;;;;;;70.53;32.27;;;;;;;;;;5087159;28;20459;-79
2021/03/09 08:05:02;;;;;;;73.37;29.03;;;;;;;;;;5083796;28;20028;-79
2021/03/09 08:07:47;;;;;;;68.30;32.23;;;;;;;;;;5086405;28;20027;-79
2021/03/09 08:10:27;;;;;;;69.10;30.17;;;;;;;;;;5086337;28;20028;-79
2021/03/09 08:12:53;;;;;;;71.37;31.03;;;;;;;;;;5086350;28;20509;-79
2021/03/09 08:15:19;;;;;;;74.63;31.00;;;;;;;;;;5087447;28;20032;-79
2021/03/09 08:17:44;;;;;;;71.37;31.43;;;;;;;;;;5086727;28;20031;-79
2021/03/09 08:20:29;;;;;;;73.20;30.83;;;;;;;;;;5086978;28;20372;-79
2021/03/09 08:22:54;;;;;;;74.83;32.60;;;;;;;;;;5080484;28;20031;-79
2021/03/09 08:25:36;;;;;;;78.03;30.67;;;;;;;;;;5067062;28;20396;-79
2021/03/09 08:28:21;;;;;;;76.20;35.17;;;;;;;;;;5068639;28;20464;-79
2021/03/09 08:30:46;;;;;;;71.47;33.07;;;;;;;;;;5068598;28;20028;-79
2021/03/09 08:33:24;;;;;;;84.63;31.63;;;;;;;;;;5073767;28;20031;-79
2021/03/09 08:35:49;;;;;;;77.73;32.40;;;;;;;;;;5072897;28;20025;-79
2021/03/09 08:38:15;;;;;;;75.57;32.57;;;;;;;;;;5072563;28;20025;-79
2021/03/09 08:40:56;;;;;;;76.63;37.23;;;;;;;;;;5072738;28;20023;-79
2021/03/09 08:43:22;;;;;;;78.30;36.67;;;;;;;;;;5070517;28;20106;-79
2021/03/09 08:45:53;;;;;;;78.23;31.83;;;;;;;;;;5073588;28;20044;-79
2021/03/09 08:48:38;;;;;;;78.13;33.73;;;;;;;;;;5072359;28;20107;-79
2021/03/09 08:51:03;;;;;;;76.07;32.77;;;;;;;;;;5072362;28;20023;-79
2021/03/09 08:53:28;;;;;;;78.57;34.63;;;;;;;;;;5072668;28;20017;-79
2021/03/09 08:56:04;;;;;;;83.07;34.20;;;;;;;;;;5072588;28;20017;-79
2021/03/09 08:58:29;;;;;;;85.27;36.07;;;;;;;;;;5071338;28;20023;-79
2021/03/09 09:00:55;;;;;;;77.37;32.73;;;;;;;;;;5070475;28;20111;-79
2021/03/09 09:03:36;;;;;;;76.30;34.73;;;;;;;;;;5071920;28;20469;-79
2021/03/09 09:06:05;;;;;;;82.30;32.23;;;;;;;;;;5070154;28;20090;-79
2021/03/09 09:08:30;;;;;;;81.27;33.50;;;;;;;;;;5072401;28;20062;-79
2021/03/09 09:10:57;;;;;;;79.10;32.97;;;;;;;;;;5073597;28;20016;-80
2021/03/09 09:13:29;;;;;;;88.37;34.57;;;;;;;;;;5072095;28;20024;-79
2021/03/09 09:15:54;;;;;;;74.60;31.88;;;;;;;;;;5072330;28;20111;-79
2021/03/09 09:18:20;;;;;;;83.77;36.50;;;;;;;;;;5073716;28;20556;-79
2021/03/09 09:20:47;;;;;;;84.77;34.70;;;;;;;;;;5071888;28;20040;-79
2021/03/09 09:23:18;;;;;;;88.50;36.60;;;;;;;;;;5072054;28;20113;-79
2021/03/09 09:25:45;;;;;;;80.50;34.33;;;;;;;;;;5071985;28;20022;-80
2021/03/09 09:28:25;;;;;;;84.03;34.93;;;;;;;;;;5073716;28;20024;-79
2021/03/09 09:30:51;;;;;;;84.33;36.93;;;;;;;;;;5071331;28;20115;-79
2021/03/09 09:33:16;;;;;;;91.53;37.53;;;;;;;;;;5073111;28;20111;-79
2021/03/09 09:35:42;;;;;;;79.77;34.43;;;;;;;;;;5070728;28;20103;-79
2021/03/09 09:38:10;;;;;;;85.17;36.40;;;;;;;;;;5071891;28;20020;-79
2021/03/09 09:40:37;;;;;;;83.80;31.37;;;;;;;;;;5071567;28;20016;-79
2021/03/09 09:43:06;;;;;;;89.13;36.53;;;;;;;;;;5071741;28;20066;-79
2021/03/09 09:45:33;;;;;;;78.50;33.93;;;;;;;;;;5076047;28;20024;-79
2021/03/09 09:47:59;;;;;;;88.30;37.87;;;;;;;;;;5071529;28;20448;-79
2021/03/09 09:50:24;;;;;;;87.77;36.90;;;;;;;;;;5071739;28;20017;-79
2021/03/09 09:52:54;;;;;;;85.90;36.63;;;;;;;;;;5072450;28;20025;-79
2021/03/09 09:55:20;;;;;;;88.73;36.20;;;;;;;;;;5071492;28;20023;-79
2021/03/09 09:57:49;;;;;;;95.83;36.27;;;;;;;;;;5072778;28;20024;-79
2021/03/09 10:00:14;;;;;;;84.43;34.97;;;;;;;;;;5071414;28;20020;-79
2021/03/09 10:02:40;;;;;;;78.67;34.13;;;;;;;;;;5071072;28;20081;-79
2021/03/09 10:05:05;;;;;;;83.23;37.40;;;;;;;;;;5071163;28;20396;-79
2021/03/09 10:07:40;;;;;;;89.00;38.50;;;;;;;;;;5071390;28;20032;-79
2021/03/09 10:10:07;;;;;;;86.23;36.87;;;;;;;;;;5072907;28;20024;-79
2021/03/09 10:12:39;;;;;;;80.10;32.10;;;;;;;;;;5070797;28;20017;-79
2021/03/09 10:15:08;;;;;;;83.95;41.10;;;;;;;;;;5071091;28;20036;-79
2021/03/09 10:17:33;;;;;;;82.20;38.73;;;;;;;;;;5072162;28;20024;-79
2021/03/09 10:19:59;;;;;;;76.63;38.07;;;;;;;;;;5072142;28;20020;-79
2021/03/09 10:22:25;;;;;;;84.00;37.30;;;;;;;;;;5070591;28;20044;-79
2021/03/09 10:24:50;;;;;;;82.40;39.93;;;;;;;;;;5070624;28;20028;-79
2021/03/09 10:27:17;;;;;;;78.97;37.80;;;;;;;;;;5072219;28;20422;-79
2021/03/09 10:29:42;;;;;;;73.70;32.93;;;;;;;;;;5070266;28;20054;-79
2021/03/09 10:32:12;;;;;;;83.40;34.80;;;;;;;;;;5068079;28;20433;-79
2021/03/09 10:34:38;;;;;;;82.17;36.67;;;;;;;;;;5061999;28;20027;-79
2021/03/09 10:37:04;;;;;;;86.40;35.00;;;;;;;;;;5071398;28;20511;-79
2021/03/09 10:39:31;;;;;;;85.23;35.93;;;;;;;;;;5070105;28;20020;-79
2021/03/09 10:41:57;;;;;;;76.03;34.73;;;;;;;;;;5070698;28;20077;-79
2021/03/09 10:44:36;;;;;;;81.97;35.90;;;;;;;;;;5070646;28;20468;-79
2021/03/09 10:47:03;;;;;;;80.23;36.50;;;;;;;;;;5070160;28;20070;-79
2021/03/09 10:49:28;;;;;;;87.47;40.47;;;;;;;;;;5070445;28;20033;-79
2021/03/09 10:51:57;;;;;;;83.23;38.93;;;;;;;;;;5070719;28;20356;-79
2021/03/09 10:54:23;;;;;;;80.10;34.33;;;;;;;;;;5070937;28;20179;-79
2021/03/09 10:56:48;;;;;;;84.40;38.53;;;;;;;;;;5071628;28;20523;-79
2021/03/09 10:59:14;;;;;;;84.97;38.50;;;;;;;;;;5070730;28;20066;-79
2021/03/09 11:01:39;;;;;;;82.53;37.90;;;;;;;;;;5070766;28;20017;-79
2021/03/09 11:04:04;;;;;;;88.60;36.87;;;;;;;;;;5070228;28;20020;-79
2021/03/09 11:06:29;;;;;;;87.40;41.83;;;;;;;;;;5064411;28;20068;-79
2021/03/09 11:08:54;;;;;;;79.73;36.87;;;;;;;;;;5070452;28;20016;-79
2021/03/09 11:11:20;;;;;;;84.90;33.73;;;;;;;;;;5064116;28;20464;-80
2021/03/09 11:13:45;;;;;;;77.60;35.90;;;;;;;;;;5066859;28;20020;-79
2021/03/09 11:16:10;;;;;;;85.90;34.63;;;;;;;;;;5071831;28;20043;-79
2021/03/09 11:18:35;;;;;;;77.20;35.87;;;;;;;;;;5072302;28;20059;-79
2021/03/09 11:21:00;;;;;;;77.83;34.77;;;;;;;;;;5070341;28;20027;-79
2021/03/09 11:23:26;;;;;;;80.67;36.13;;;;;;;;;;5070389;28;20103;-79
2021/03/09 11:25:51;;;;;;;86.63;41.07;;;;;;;;;;5070496;28;20115;-79
2021/03/09 11:28:16;;;;;;;87.37;40.03;;;;;;;;;;5070449;28;20032;-79
2021/03/09 11:30:41;;;;;;;76.20;34.30;;;;;;;;;;5071726;28;20025;-79
2021/03/09 11:33:06;;;;;;;75.23;33.17;;;;;;;;;;5070205;28;20031;-79
2021/03/09 11:35:32;;;;;;;73.30;33.07;;;;;;;;;;5062822;28;20476;-79
2021/03/09 11:37:57;;;;;;;76.50;34.77;;;;;;;;;;5093107;28;20042;-79
2021/03/09 11:40:23;;;;;;;73.13;33.80;;;;;;;;;;5070134;28;20103;-79
2021/03/09 11:42:48;;;;;;;70.17;31.80;;;;;;;;;;5070130;28;20032;-79
2021/03/09 11:45:13;;;;;;;69.07;34.93;;;;;;;;;;5070169;28;20024;-79
2021/03/09 11:47:38;;;;;;;75.90;37.50;;;;;;;;;;5071599;28;20049;-79
2021/03/09 11:50:04;;;;;;;74.63;32.63;;;;;;;;;;5071383;28;20016;-79
2021/03/09 11:52:29;;;;;;;72.30;33.53;;;;;;;;;;5071728;28;20029;-79
2021/03/09 11:54:55;;;;;;;59.50;32.27;;;;;;;;;;5071328;28;20024;-79
2021/03/09 11:57:20;;;;;;;57.50;25.67;;;;;;;;;;5069931;28;20060;-79
2021/03/09 11:59:45;;;;;;;54.73;28.43;;;;;;;;;;5073356;28;20111;-79
2021/03/09 12:02:10;;;;;;;59.10;27.03;;;;;;;;;;5074915;28;20027;-79
2021/03/09 12:04:35;;;;;;;48.13;23.90;;;;;;;;;;5073804;28;20103;-79
2021/03/09 12:07:01;;;;;;;38.70;20.73;;;;;;;;;;5075048;28;20449;-79
2021/03/09 12:09:26;;;;;;;39.17;20.20;;;;;;;;;;5075041;28;20040;-79
2021/03/09 12:11:51;;;;;;;37.20;20.70;;;;;;;;;;5073561;28;20368;-79
2021/03/09 12:14:16;;;;;;;35.30;18.90;;;;;;;;;;5074709;28;20099;-79
2021/03/09 12:16:42;;;;;;;31.57;16.43;;;;;;;;;;5075012;28;20013;-80
2021/03/09 12:19:07;;;;;;;32.17;17.73;;;;;;;;;;5073601;28;20396;-79
2021/03/09 12:21:32;;;;;;;30.90;16.07;;;;;;;;;;5073310;28;20021;-79
2021/03/09 12:23:57;;;;;;;30.73;17.77;;;;;;;;;;5074542;28;20028;-79
2021/03/09 12:26:22;;;;;;;28.97;18.13;;;;;;;;;;5074441;28;20024;-79
2021/03/09 12:28:48;;;;;;;26.07;14.27;;;;;;;;;;5073388;28;20410;-79
2021/03/09 12:31:13;;;;;;;33.50;17.23;;;;;;;;;;5073243;28;20035;-79
2021/03/09 12:33:38;;;;;;;30.97;16.70;;;;;;;;;;5074452;28;20104;-79
2021/03/09 12:36:03;;;;;;;35.23;16.60;;;;;;;;;;5073418;28;20039;-79
2021/03/09 12:38:29;;;;;;;28.77;17.10;;;;;;;;;;5072916;28;20028;-79
2021/03/09 12:40:54;;;;;;;25.67;14.63;;;;;;;;;;5074490;28;20467;-80
2021/03/09 12:43:20;;;;;;;28.20;16.20;;;;;;;;;;5074431;28;20506;-79
2021/03/09 12:45:45;;;;;;;32.10;17.37;;;;;;;;;;5073311;28;20025;-79
2021/03/09 12:48:10;;;;;;;29.27;16.47;;;;;;;;;;5074347;28;20036;-79
2021/03/09 12:50:35;;;;;;;35.70;18.60;;;;;;;;;;5072880;28;20047;-79
2021/03/09 12:53:00;;;;;;;34.70;19.30;;;;;;;;;;5074165;28;20375;-79
2021/03/09 12:55:26;;;;;;;36.87;20.43;;;;;;;;;;5072591;28;20048;-79
2021/03/09 12:57:51;;;;;;;35.33;19.90;;;;;;;;;;5073031;28;20027;-79
2021/03/09 13:00:17;;;;;;;34.30;20.00;;;;;;;;;;5073740;28;20027;-79
2021/03/09 13:02:42;;;;;;;35.17;21.33;;;;;;;;;;5074033;28;20043;-79
2021/03/09 13:05:08;;;;;;;38.33;21.97;;;;;;;;;;5072689;28;20126;-79
2021/03/09 13:07:33;;;;;;;39.00;21.67;;;;;;;;;;5073870;28;20021;-79
2021/03/09 13:09:58;;;;;;;39.90;25.17;;;;;;;;;;5072721;28;20046;-79
2021/03/09 13:12:23;;;;;;;50.17;26.67;;;;;;;;;;5072310;28;20024;-79
2021/03/09 13:14:49;;;;;;;40.40;20.73;;;;;;;;;;5073757;28;20047;-79
2021/03/09 13:17:14;;;;;;;40.27;25.47;;;;;;;;;;5072537;28;20056;-79
2021/03/09 13:19:39;;;;;;;38.97;21.80;;;;;;;;;;5072435;28;20155;-79
2021/03/09 13:22:04;;;;;;;38.73;19.97;;;;;;;;;;5072608;28;20047;-79
2021/03/09 13:24:30;;;;;;;38.10;19.80;;;;;;;;;;5072284;28;20035;-79
2021/03/09 13:26:55;;;;;;;38.87;19.53;;;;;;;;;;5073382;28;20058;-79
2021/03/09 13:29:21;;;;;;;38.53;21.17;;;;;;;;;;5072168;28;20089;-79
2021/03/09 13:31:46;;;;;;;35.57;19.90;;;;;;;;;;5073642;28;20028;-79
2021/03/09 13:34:11;;;;;;;29.77;16.60;;;;;;;;;;5072097;28;20100;-79
2021/03/09 13:36:37;;;;;;;9.93;5.67;;;;;;;;;;5072161;28;20016;-80
2021/03/09 13:39:02;;;;;;;6.77;2.90;;;;;;;;;;5072361;28;20121;-79
2021/03/09 13:41:27;;;;;;;6.27;2.33;;;;;;;;;;5071907;28;20020;-79
2021/03/09 13:43:52;;;;;;;3.57;2.10;;;;;;;;;;5071904;28;20353;-79
2021/03/09 13:46:18;;;;;;;5.67;2.43;;;;;;;;;;5071887;28;20024;-80
2021/03/09 13:48:43;;;;;;;6.60;2.83;;;;;;;;;;5073068;28;20024;-79
2021/03/09 13:51:08;;;;;;;4.47;2.60;;;;;;;;;;5071775;28;20025;-79
2021/03/09 13:53:34;;;;;;;5.80;2.30;;;;;;;;;;5071898;28;20445;-79
2021/03/09 13:55:59;;;;;;;4.83;2.33;;;;;;;;;;5071424;28;20120;-79
2021/03/09 13:58:24;;;;;;;9.87;2.80;;;;;;;;;;5071490;28;20028;-80
2021/03/09 14:00:50;;;;;;;6.33;3.03;;;;;;;;;;5071440;28;20028;-79
2021/03/09 14:03:15;;;;;;;7.80;3.23;;;;;;;;;;5071631;28;20028;-79
2021/03/09 14:05:40;;;;;;;7.10;3.60;;;;;;;;;;5071329;28;20409;-80
2021/03/09 14:08:05;;;;;;;7.63;3.47;;;;;;;;;;5071370;28;20109;-79
2021/03/09 14:10:31;;;;;;;9.50;3.43;;;;;;;;;;5071296;28;20115;-79
2021/03/09 14:12:56;;;;;;;8.87;3.80;;;;;;;;;;5071061;28;20059;-79
2021/03/09 14:15:21;;;;;;;7.43;4.20;;;;;;;;;;5072510;28;20104;-79
2021/03/09 14:17:46;;;;;;;11.23;5.10;;;;;;;;;;5072914;28;20043;-79